sensor_id;sensor_type;location;lat;lon;timestamp;temperature;humidity
21648;DHT22;10985;54.182;7.890;2022-09-27T09:08:51;11.90;99.90
21648;DHT22;10985;54.182;7.890;2022-09-27T09:14:46;12.00;99.90
21648;DHT22;10985;54.182;7.890;2022-09-27T09:17:41;12.20;99.90
21648;DHT22;10985;54.182;7.890;2022-09-27T09:20:25;12.20;99.90
21648;DHT22;10985;54.182;7.890;2022-09-27T09:23:29;12.20;99.90
21648;DHT22;10985;54.182;7.890;2022-09-27T09:31:20;12.80;99.90
21648;DHT22;10985;54.182;7.890;2022-09-27T09:34:00;12.90;99.90
21648;DHT22;10985;54.182;7.890;2022-09-27T09:36:34;13.10;99.90
21648;DHT22;10985;54.182;7.890;2022-09-27T09:39:10;13.30;99.90
21648;DHT22;10985;54.182;7.890;2022-09-27T09:41:42;13.60;99.90
21648;DHT22;10985;54.182;7.890;2022-09-27T09:44:25;13.80;99.90
21648;DHT22;10985;54.182;7.890;2022-09-27T09:46:54;14.00;99.90
21648;DHT22;10985;54.182;7.890;2022-09-27T09:49:31;14.00;99.90
21648;DHT22;10985;54.182;7.890;2022-09-27T09:52:01;14.20;99.90
21648;DHT22;10985;54.182;7.890;2022-09-27T09:54:34;14.30;99.90
21648;DHT22;10985;54.182;7.890;2022-09-27T09:57:13;14.40;99.90
21648;DHT22;10985;54.182;7.890;2022-09-27T09:59:53;14.40;99.90
21648;DHT22;10985;54.182;7.890;2022-09-27T10:04:51;14.30;99.90
21648;DHT22;10985;54.182;7.890;2022-09-27T10:07:21;14.30;99.90
21648;DHT22;10985;54.182;7.890;2022-09-27T10:09:48;14.30;99.90
21648;DHT22;10985;54.182;7.890;2022-09-27T10:12:14;14.40;99.90
21648;DHT22;10985;54.182;7.890;2022-09-27T10:14:40;14.30;99.90
21648;DHT22;10985;54.182;7.890;2022-09-27T10:17:10;14.30;99.90
21648;DHT22;10985;54.182;7.890;2022-09-27T10:19:39;14.40;99.90
21648;DHT22;10985;54.182;7.890;2022-09-27T10:22:15;14.40;99.90
21648;DHT22;10985;54.182;7.890;2022-09-27T10:27:23;14.30;99.90
21648;DHT22;10985;54.182;7.890;2022-09-27T10:29:58;14.20;99.90
21648;DHT22;10985;54.182;7.890;2022-09-27T10:32:28;14.20;99.90
21648;DHT22;10985;54.182;7.890;2022-09-27T10:35:21;14.20;99.90
21648;DHT22;10985;54.182;7.890;2022-09-27T10:37:47;14.20;99.90
21648;DHT22;10985;54.182;7.890;2022-09-27T10:40:25;14.20;99.90
21648;DHT22;10985;54.182;7.890;2022-09-27T10:42:51;14.20;99.90
21648;DHT22;10985;54.182;7.890;2022-09-27T10:47:48;14.20;99.90
21648;DHT22;10985;54.182;7.890;2022-09-27T10:50:17;14.20;99.90
21648;DHT22;10985;54.182;7.890;2022-09-27T10:52:46;14.30;99.90
21648;DHT22;10985;54.182;7.890;2022-09-27T10:55:22;14.40;99.90
21648;DHT22;10985;54.182;7.890;2022-09-27T10:57:53;14.50;99.90
21648;DHT22;10985;54.182;7.890;2022-09-27T11:00:25;14.70;99.90
21648;DHT22;10985;54.182;7.890;2022-09-27T11:02:54;14.90;99.90
21648;DHT22;10985;54.182;7.890;2022-09-27T11:07:53;15.40;99.90
21648;DHT22;10985;54.182;7.890;2022-09-27T11:10:31;15.70;99.90
21648;DHT22;10985;54.182;7.890;2022-09-27T11:13:16;16.00;99.90
21648;DHT22;10985;54.182;7.890;2022-09-27T11:18:53;16.40;99.90
21648;DHT22;10985;54.182;7.890;2022-09-27T11:21:40;16.60;99.90
21648;DHT22;10985;54.182;7.890;2022-09-27T11:27:18;16.80;99.90
21648;DHT22;10985;54.182;7.890;2022-09-27T11:30:01;16.90;99.90
21648;DHT22;10985;54.182;7.890;2022-09-27T11:32:38;17.10;99.90
21648;DHT22;10985;54.182;7.890;2022-09-27T11:35:27;17.40;99.90
21648;DHT22;10985;54.182;7.890;2022-09-27T11:38:23;17.80;99.90
21648;DHT22;10985;54.182;7.890;2022-09-27T11:41:15;18.40;99.90
21648;DHT22;10985;54.182;7.890;2022-09-27T11:44:15;19.10;99.90
21648;DHT22;10985;54.182;7.890;2022-09-27T11:46:55;19.90;99.90
21648;DHT22;10985;54.182;7.890;2022-09-27T11:49:35;20.50;99.90
21648;DHT22;10985;54.182;7.890;2022-09-27T11:52:26;21.10;99.90
21648;DHT22;10985;54.182;7.890;2022-09-27T11:58:31;22.10;99.90
21648;DHT22;10985;54.182;7.890;2022-09-27T12:01:15;22.50;99.90
21648;DHT22;10985;54.182;7.890;2022-09-27T12:07:10;22.30;99.90
21648;DHT22;10985;54.182;7.890;2022-09-27T12:09:43;22.20;99.90
21648;DHT22;10985;54.182;7.890;2022-09-27T12:12:16;22.30;99.90
21648;DHT22;10985;54.182;7.890;2022-09-27T12:14:46;22.50;99.90
21648;DHT22;10985;54.182;7.890;2022-09-27T12:17:26;22.70;99.90
21648;DHT22;10985;54.182;7.890;2022-09-27T12:19:58;23.10;99.90
21648;DHT22;10985;54.182;7.890;2022-09-27T12:22:33;23.20;99.90
21648;DHT22;10985;54.182;7.890;2022-09-27T12:25:00;23.40;99.90
21648;DHT22;10985;54.182;7.890;2022-09-27T12:27:38;23.90;99.90
21648;DHT22;10985;54.182;7.890;2022-09-27T12:30:11;24.30;99.90
21648;DHT22;10985;54.182;7.890;2022-09-27T12:35:38;25.10;99.10
21648;DHT22;10985;54.182;7.890;2022-09-27T12:38:09;25.70;97.70
21648;DHT22;10985;54.182;7.890;2022-09-27T12:40:44;25.70;97.00
21648;DHT22;10985;54.182;7.890;2022-09-27T12:43:25;25.50;97.20
21648;DHT22;10985;54.182;7.890;2022-09-27T12:51:16;25.00;97.10
21648;DHT22;10985;54.182;7.890;2022-09-27T12:56:38;24.70;97.80
21648;DHT22;10985;54.182;7.890;2022-09-27T12:59:33;24.70;97.80
21648;DHT22;10985;54.182;7.890;2022-09-27T13:08:34;24.10;97.00
21648;DHT22;10985;54.182;7.890;2022-09-27T13:13:58;24.10;97.70
21648;DHT22;10985;54.182;7.890;2022-09-27T13:16:26;24.00;97.00
21648;DHT22;10985;54.182;7.890;2022-09-27T13:18:57;24.00;97.00
21648;DHT22;10985;54.182;7.890;2022-09-27T13:24:47;23.40;97.10
21648;DHT22;10985;54.182;7.890;2022-09-27T13:29:47;23.10;97.40
21648;DHT22;10985;54.182;7.890;2022-09-27T13:32:24;22.90;97.40
21648;DHT22;10985;54.182;7.890;2022-09-27T13:34:53;22.90;97.90
21648;DHT22;10985;54.182;7.890;2022-09-27T13:37:38;22.80;98.60
21648;DHT22;10985;54.182;7.890;2022-09-27T13:43:01;22.30;98.90
21648;DHT22;10985;54.182;7.890;2022-09-27T13:45:58;22.20;99.10
21648;DHT22;10985;54.182;7.890;2022-09-27T13:51:01;21.70;99.90
21648;DHT22;10985;54.182;7.890;2022-09-27T13:53:33;21.40;99.90
21648;DHT22;10985;54.182;7.890;2022-09-27T13:56:00;21.20;99.90
21648;DHT22;10985;54.182;7.890;2022-09-27T13:58:46;21.00;99.90
21648;DHT22;10985;54.182;7.890;2022-09-27T14:01:25;20.70;99.90
21648;DHT22;10985;54.182;7.890;2022-09-27T14:03:55;20.40;99.90
21648;DHT22;10985;54.182;7.890;2022-09-27T14:06:28;20.20;99.90
21648;DHT22;10985;54.182;7.890;2022-09-27T14:09:03;19.90;99.90
21648;DHT22;10985;54.182;7.890;2022-09-27T14:11:38;19.70;99.90
21648;DHT22;10985;54.182;7.890;2022-09-27T14:14:04;19.50;99.90
21648;DHT22;10985;54.182;7.890;2022-09-27T14:16:34;19.30;99.90
21648;DHT22;10985;54.182;7.890;2022-09-27T14:19:01;19.10;99.90
21648;DHT22;10985;54.182;7.890;2022-09-27T14:21:32;19.00;99.90
21648;DHT22;10985;54.182;7.890;2022-09-27T14:26:46;18.50;99.90
21648;DHT22;10985;54.182;7.890;2022-09-27T14:29:19;18.40;99.90
21648;DHT22;10985;54.182;7.890;2022-09-27T14:31:45;18.20;99.90
21648;DHT22;10985;54.182;7.890;2022-09-27T14:34:14;18.10;99.90
21648;DHT22;10985;54.182;7.890;2022-09-27T14:36:42;18.00;99.90
21648;DHT22;10985;54.182;7.890;2022-09-27T14:39:34;17.90;99.90
21648;DHT22;10985;54.182;7.890;2022-09-27T14:42:04;17.70;99.90
21648;DHT22;10985;54.182;7.890;2022-09-27T14:44:31;17.50;99.90
21648;DHT22;10985;54.182;7.890;2022-09-27T14:47:26;17.40;99.90
21648;DHT22;10985;54.182;7.890;2022-09-27T14:50:12;17.20;99.90
21648;DHT22;10985;54.182;7.890;2022-09-27T14:52:40;16.90;99.90
21648;DHT22;10985;54.182;7.890;2022-09-27T14:55:08;16.80;99.90
21648;DHT22;10985;54.182;7.890;2022-09-27T14:57:34;16.70;99.90
21648;DHT22;10985;54.182;7.890;2022-09-27T15:00:21;16.60;99.90
21648;DHT22;10985;54.182;7.890;2022-09-27T15:02:49;16.40;99.90
21648;DHT22;10985;54.182;7.890;2022-09-27T15:05:26;16.30;99.90
21648;DHT22;10985;54.182;7.890;2022-09-27T15:07:52;16.30;99.90
21648;DHT22;10985;54.182;7.890;2022-09-27T15:10:21;16.20;99.90
21648;DHT22;10985;54.182;7.890;2022-09-27T15:12:49;16.10;99.90
21648;DHT22;10985;54.182;7.890;2022-09-27T15:15:21;16.00;99.90
21648;DHT22;10985;54.182;7.890;2022-09-27T15:17:48;15.90;99.90
21648;DHT22;10985;54.182;7.890;2022-09-27T15:20:28;15.80;99.90
21648;DHT22;10985;54.182;7.890;2022-09-27T15:23:00;15.70;99.90
21648;DHT22;10985;54.182;7.890;2022-09-27T15:25:40;15.60;99.90
21648;DHT22;10985;54.182;7.890;2022-09-27T15:30:53;15.30;99.90
21648;DHT22;10985;54.182;7.890;2022-09-27T15:33:29;15.30;99.90
21648;DHT22;10985;54.182;7.890;2022-09-27T15:35:58;15.20;99.90
21648;DHT22;10985;54.182;7.890;2022-09-27T15:38:29;15.00;99.90
21648;DHT22;10985;54.182;7.890;2022-09-27T15:45:57;14.80;99.90
21648;DHT22;10985;54.182;7.890;2022-09-27T15:48:26;14.80;99.90
21648;DHT22;10985;54.182;7.890;2022-09-27T15:50:52;14.80;99.90
21648;DHT22;10985;54.182;7.890;2022-09-27T15:56:03;14.60;99.90
21648;DHT22;10985;54.182;7.890;2022-09-27T15:58:31;14.50;99.90
21648;DHT22;10985;54.182;7.890;2022-09-27T16:00:59;14.50;99.90
21648;DHT22;10985;54.182;7.890;2022-09-27T16:03:30;14.50;99.90
21648;DHT22;10985;54.182;7.890;2022-09-27T16:05:56;14.40;99.90
21648;DHT22;10985;54.182;7.890;2022-09-27T16:08:23;14.30;99.90
21648;DHT22;10985;54.182;7.890;2022-09-27T16:10:51;14.30;99.90
21648;DHT22;10985;54.182;7.890;2022-09-27T16:13:17;14.20;99.90
21648;DHT22;10985;54.182;7.890;2022-09-27T16:15:43;14.20;99.90
21648;DHT22;10985;54.182;7.890;2022-09-27T16:18:10;14.10;99.90
21648;DHT22;10985;54.182;7.890;2022-09-27T16:20:35;14.00;99.90
21648;DHT22;10985;54.182;7.890;2022-09-27T16:23:01;14.00;99.90
21648;DHT22;10985;54.182;7.890;2022-09-27T16:25:26;14.00;99.90
21648;DHT22;10985;54.182;7.890;2022-09-27T16:27:56;13.90;99.90
21648;DHT22;10985;54.182;7.890;2022-09-27T16:30:22;13.90;99.90
21648;DHT22;10985;54.182;7.890;2022-09-27T16:32:48;13.90;99.90
21648;DHT22;10985;54.182;7.890;2022-09-27T16:35:14;13.90;99.90
21648;DHT22;10985;54.182;7.890;2022-09-27T16:37:41;13.80;99.90
21648;DHT22;10985;54.182;7.890;2022-09-27T16:40:08;13.80;99.90
21648;DHT22;10985;54.182;7.890;2022-09-27T16:42:34;13.80;99.90
21648;DHT22;10985;54.182;7.890;2022-09-27T16:45:00;13.70;99.90
21648;DHT22;10985;54.182;7.890;2022-09-27T16:47:29;13.70;99.90
21648;DHT22;10985;54.182;7.890;2022-09-27T16:49:55;13.60;99.90
21648;DHT22;10985;54.182;7.890;2022-09-27T16:52:39;13.60;99.90
21648;DHT22;10985;54.182;7.890;2022-09-27T16:55:06;13.50;99.90
21648;DHT22;10985;54.182;7.890;2022-09-27T16:57:33;13.50;99.90
21648;DHT22;10985;54.182;7.890;2022-09-27T16:59:59;13.50;99.90
21648;DHT22;10985;54.182;7.890;2022-09-27T17:02:25;13.40;99.90
21648;DHT22;10985;54.182;7.890;2022-09-27T17:04:52;13.40;99.90
21648;DHT22;10985;54.182;7.890;2022-09-27T17:07:18;13.40;99.90
21648;DHT22;10985;54.182;7.890;2022-09-27T17:09:44;13.40;99.90
21648;DHT22;10985;54.182;7.890;2022-09-27T17:12:10;13.40;99.90
21648;DHT22;10985;54.182;7.890;2022-09-27T17:14:35;13.30;99.90
21648;DHT22;10985;54.182;7.890;2022-09-27T17:17:01;13.30;99.90
21648;DHT22;10985;54.182;7.890;2022-09-27T17:19:26;13.20;99.90
21648;DHT22;10985;54.182;7.890;2022-09-27T17:21:53;13.10;99.90
21648;DHT22;10985;54.182;7.890;2022-09-27T17:24:20;13.10;99.90
21648;DHT22;10985;54.182;7.890;2022-09-27T17:26:46;13.10;99.90
21648;DHT22;10985;54.182;7.890;2022-09-27T17:29:12;13.10;99.90
21648;DHT22;10985;54.182;7.890;2022-09-27T17:31:38;13.00;99.90
21648;DHT22;10985;54.182;7.890;2022-09-27T17:34:05;13.00;99.90
21648;DHT22;10985;54.182;7.890;2022-09-27T17:36:32;13.00;99.90
21648;DHT22;10985;54.182;7.890;2022-09-27T17:39:00;13.00;99.90
21648;DHT22;10985;54.182;7.890;2022-09-27T17:41:27;13.00;99.90
21648;DHT22;10985;54.182;7.890;2022-09-27T17:43:57;13.00;99.90
21648;DHT22;10985;54.182;7.890;2022-09-27T17:46:35;13.00;99.90
21648;DHT22;10985;54.182;7.890;2022-09-27T17:49:01;13.00;99.90
21648;DHT22;10985;54.182;7.890;2022-09-27T17:51:47;13.00;99.90
21648;DHT22;10985;54.182;7.890;2022-09-27T17:54:13;13.00;99.90
21648;DHT22;10985;54.182;7.890;2022-09-27T17:56:40;13.00;99.90
21648;DHT22;10985;54.182;7.890;2022-09-27T17:59:08;12.90;99.90
21648;DHT22;10985;54.182;7.890;2022-09-27T18:01:34;12.90;99.90
21648;DHT22;10985;54.182;7.890;2022-09-27T18:04:02;12.90;99.90
21648;DHT22;10985;54.182;7.890;2022-09-27T18:06:28;12.90;99.90
21648;DHT22;10985;54.182;7.890;2022-09-27T18:08:55;12.90;99.90
21648;DHT22;10985;54.182;7.890;2022-09-27T18:11:23;12.80;99.90
21648;DHT22;10985;54.182;7.890;2022-09-27T18:13:55;12.90;99.90
21648;DHT22;10985;54.182;7.890;2022-09-27T18:16:25;12.80;99.90
21648;DHT22;10985;54.182;7.890;2022-09-27T18:18:54;12.80;99.90
21648;DHT22;10985;54.182;7.890;2022-09-27T18:21:20;12.80;99.90
21648;DHT22;10985;54.182;7.890;2022-09-27T18:23:49;12.80;99.90
21648;DHT22;10985;54.182;7.890;2022-09-27T18:26:18;12.70;99.90
21648;DHT22;10985;54.182;7.890;2022-09-27T18:28:44;12.70;99.90
21648;DHT22;10985;54.182;7.890;2022-09-27T18:31:12;12.70;99.90
21648;DHT22;10985;54.182;7.890;2022-09-27T18:33:39;12.70;99.90
21648;DHT22;10985;54.182;7.890;2022-09-27T18:36:05;12.70;99.90
21648;DHT22;10985;54.182;7.890;2022-09-27T18:38:31;12.70;99.90
21648;DHT22;10985;54.182;7.890;2022-09-27T18:41:07;12.60;99.90
21648;DHT22;10985;54.182;7.890;2022-09-27T18:43:33;12.70;99.90
21648;DHT22;10985;54.182;7.890;2022-09-27T18:46:00;12.60;99.90
21648;DHT22;10985;54.182;7.890;2022-09-27T18:48:26;12.60;99.90
21648;DHT22;10985;54.182;7.890;2022-09-27T18:50:51;12.50;99.90
21648;DHT22;10985;54.182;7.890;2022-09-27T18:53:17;12.50;99.90
21648;DHT22;10985;54.182;7.890;2022-09-27T18:55:42;12.50;99.90
21648;DHT22;10985;54.182;7.890;2022-09-27T18:58:08;12.50;99.90
21648;DHT22;10985;54.182;7.890;2022-09-27T19:00:38;12.60;99.90
21648;DHT22;10985;54.182;7.890;2022-09-27T19:03:04;12.60;99.90
21648;DHT22;10985;54.182;7.890;2022-09-27T19:05:29;12.60;99.90
21648;DHT22;10985;54.182;7.890;2022-09-27T19:07:55;12.50;99.90
21648;DHT22;10985;54.182;7.890;2022-09-27T19:10:20;12.50;99.90
21648;DHT22;10985;54.182;7.890;2022-09-27T19:12:46;12.50;99.90
21648;DHT22;10985;54.182;7.890;2022-09-27T19:15:12;12.50;99.90
21648;DHT22;10985;54.182;7.890;2022-09-27T19:17:37;12.50;99.90
21648;DHT22;10985;54.182;7.890;2022-09-27T19:20:03;12.50;99.90
21648;DHT22;10985;54.182;7.890;2022-09-27T19:22:31;12.50;99.90
21648;DHT22;10985;54.182;7.890;2022-09-27T19:24:57;12.40;99.90
21648;DHT22;10985;54.182;7.890;2022-09-27T19:27:23;12.30;99.90
21648;DHT22;10985;54.182;7.890;2022-09-27T19:29:48;12.30;99.90
21648;DHT22;10985;54.182;7.890;2022-09-27T19:32:14;12.30;99.90
21648;DHT22;10985;54.182;7.890;2022-09-27T19:34:39;12.30;99.90
21648;DHT22;10985;54.182;7.890;2022-09-27T19:37:05;12.20;99.90
21648;DHT22;10985;54.182;7.890;2022-09-27T19:39:30;12.20;99.90
21648;DHT22;10985;54.182;7.890;2022-09-27T19:41:56;12.20;99.90
21648;DHT22;10985;54.182;7.890;2022-09-27T19:44:21;12.10;99.90
21648;DHT22;10985;54.182;7.890;2022-09-27T19:46:47;12.00;99.90
21648;DHT22;10985;54.182;7.890;2022-09-27T19:49:12;12.00;99.90
21648;DHT22;10985;54.182;7.890;2022-09-27T19:51:38;12.00;99.90
21648;DHT22;10985;54.182;7.890;2022-09-27T19:54:04;12.00;99.90
21648;DHT22;10985;54.182;7.890;2022-09-27T19:56:29;11.90;99.90
21648;DHT22;10985;54.182;7.890;2022-09-27T19:58:55;11.90;99.90
21648;DHT22;10985;54.182;7.890;2022-09-27T20:01:22;11.80;99.90
21648;DHT22;10985;54.182;7.890;2022-09-27T20:03:51;11.80;99.90
21648;DHT22;10985;54.182;7.890;2022-09-27T20:06:19;11.70;99.90
21648;DHT22;10985;54.182;7.890;2022-09-27T20:08:45;11.70;99.90
21648;DHT22;10985;54.182;7.890;2022-09-27T20:11:14;11.70;99.90
21648;DHT22;10985;54.182;7.890;2022-09-27T20:13:40;11.70;99.90
21648;DHT22;10985;54.182;7.890;2022-09-27T20:16:21;11.70;99.90
21648;DHT22;10985;54.182;7.890;2022-09-27T20:18:49;11.70;99.90
21648;DHT22;10985;54.182;7.890;2022-09-27T20:21:16;11.60;99.90
21648;DHT22;10985;54.182;7.890;2022-09-27T20:23:42;11.70;99.90
21648;DHT22;10985;54.182;7.890;2022-09-27T20:26:10;11.60;99.90
21648;DHT22;10985;54.182;7.890;2022-09-27T20:28:40;11.60;99.90
21648;DHT22;10985;54.182;7.890;2022-09-27T20:31:06;11.60;99.90
21648;DHT22;10985;54.182;7.890;2022-09-27T20:33:32;11.50;99.90
21648;DHT22;10985;54.182;7.890;2022-09-27T20:36:28;11.50;99.90
21648;DHT22;10985;54.182;7.890;2022-09-27T20:38:59;11.50;99.90
21648;DHT22;10985;54.182;7.890;2022-09-27T20:41:29;11.50;99.90
21648;DHT22;10985;54.182;7.890;2022-09-27T20:43:57;11.40;99.90
21648;DHT22;10985;54.182;7.890;2022-09-27T20:46:24;11.40;99.90
21648;DHT22;10985;54.182;7.890;2022-09-27T20:48:55;11.30;99.90
21648;DHT22;10985;54.182;7.890;2022-09-27T20:51:22;11.30;99.90
21648;DHT22;10985;54.182;7.890;2022-09-27T20:53:48;11.30;99.90
21648;DHT22;10985;54.182;7.890;2022-09-27T20:56:23;11.20;99.90
21648;DHT22;10985;54.182;7.890;2022-09-27T20:58:51;11.20;99.90
21648;DHT22;10985;54.182;7.890;2022-09-27T21:01:17;11.30;99.90
21648;DHT22;10985;54.182;7.890;2022-09-27T21:03:44;11.20;99.90
21648;DHT22;10985;54.182;7.890;2022-09-27T21:06:10;11.10;99.90
21648;DHT22;10985;54.182;7.890;2022-09-27T21:08:37;11.10;99.90
21648;DHT22;10985;54.182;7.890;2022-09-27T21:11:11;11.10;99.90
21648;DHT22;10985;54.182;7.890;2022-09-27T21:13:38;11.10;99.90
21648;DHT22;10985;54.182;7.890;2022-09-27T21:16:06;11.10;99.90
21648;DHT22;10985;54.182;7.890;2022-09-27T21:18:32;11.10;99.90
21648;DHT22;10985;54.182;7.890;2022-09-27T21:21:04;11.10;99.90
21648;DHT22;10985;54.182;7.890;2022-09-27T21:23:30;11.10;99.90
21648;DHT22;10985;54.182;7.890;2022-09-27T21:26:00;11.00;99.90
21648;DHT22;10985;54.182;7.890;2022-09-27T21:28:33;11.10;99.90
21648;DHT22;10985;54.182;7.890;2022-09-27T21:31:04;11.10;99.90
21648;DHT22;10985;54.182;7.890;2022-09-27T21:33:30;11.10;99.90
21648;DHT22;10985;54.182;7.890;2022-09-27T21:35:56;11.10;99.90
21648;DHT22;10985;54.182;7.890;2022-09-27T21:38:21;11.10;99.90
21648;DHT22;10985;54.182;7.890;2022-09-27T21:41:02;11.10;99.90
21648;DHT22;10985;54.182;7.890;2022-09-27T21:43:30;11.20;99.90
21648;DHT22;10985;54.182;7.890;2022-09-27T21:46:01;11.10;99.90
21648;DHT22;10985;54.182;7.890;2022-09-27T21:48:27;11.10;99.90
21648;DHT22;10985;54.182;7.890;2022-09-27T21:50:59;11.20;99.90
21648;DHT22;10985;54.182;7.890;2022-09-27T21:53:25;11.10;99.90
21648;DHT22;10985;54.182;7.890;2022-09-27T21:55:54;11.20;99.90
21648;DHT22;10985;54.182;7.890;2022-09-27T21:58:20;11.10;99.90
21648;DHT22;10985;54.182;7.890;2022-09-27T22:00:45;11.10;99.90
21648;DHT22;10985;54.182;7.890;2022-09-27T22:03:11;11.20;99.90
21648;DHT22;10985;54.182;7.890;2022-09-27T22:05:43;11.20;99.90
21648;DHT22;10985;54.182;7.890;2022-09-27T22:08:09;11.20;99.90
21648;DHT22;10985;54.182;7.890;2022-09-27T22:10:34;11.20;99.90
21648;DHT22;10985;54.182;7.890;2022-09-27T22:13:00;11.10;99.90
21648;DHT22;10985;54.182;7.890;2022-09-27T22:15:25;11.10;99.90
21648;DHT22;10985;54.182;7.890;2022-09-27T22:17:51;11.10;99.90
21648;DHT22;10985;54.182;7.890;2022-09-27T22:20:16;11.10;99.90
21648;DHT22;10985;54.182;7.890;2022-09-27T22:22:42;11.10;99.90
21648;DHT22;10985;54.182;7.890;2022-09-27T22:25:08;11.00;99.90
21648;DHT22;10985;54.182;7.890;2022-09-27T22:27:33;11.00;99.90
21648;DHT22;10985;54.182;7.890;2022-09-27T22:29:59;11.00;99.90
21648;DHT22;10985;54.182;7.890;2022-09-27T22:32:24;10.90;99.90
21648;DHT22;10985;54.182;7.890;2022-09-27T22:34:50;10.90;99.90
21648;DHT22;10985;54.182;7.890;2022-09-27T22:37:17;10.90;99.90
21648;DHT22;10985;54.182;7.890;2022-09-27T22:39:43;10.90;99.90
21648;DHT22;10985;54.182;7.890;2022-09-27T22:42:08;11.00;99.90
21648;DHT22;10985;54.182;7.890;2022-09-27T22:44:33;11.00;99.90
21648;DHT22;10985;54.182;7.890;2022-09-27T22:46:59;11.00;99.90
21648;DHT22;10985;54.182;7.890;2022-09-27T22:49:25;11.00;99.90
21648;DHT22;10985;54.182;7.890;2022-09-27T22:51:50;11.00;99.90
21648;DHT22;10985;54.182;7.890;2022-09-27T22:54:16;11.00;99.90
21648;DHT22;10985;54.182;7.890;2022-09-27T22:56:41;11.00;99.90
21648;DHT22;10985;54.182;7.890;2022-09-27T22:59:06;11.00;99.90
21648;DHT22;10985;54.182;7.890;2022-09-27T23:01:32;11.00;99.90
